Time,TemperatureF,DewpointF,PressureIn,WindDirection,WindDirectionDegrees,WindSpeedMPH,WindSpeedGustMPH,Humidity,HourlyPrecipIn,Conditions,Clouds,dailyrainin,SoftwareType,DateUTC
2013-11-07 00:00:00,55.8,49.4,29.53,WNW,293,13.0,15.0,79,0.00,,,0.01,Wunderground v.1.15,2013-11-07 05:00:00,
2013-11-07 00:05:00,55.6,49.5,29.53,WSW,257,13.0,13.0,80,0.00,,,0.00,Wunderground v.1.15,2013-11-07 05:05:00,
2013-11-07 00:10:00,55.1,49.7,29.54,West,273,11.0,13.0,82,0.00,,,0.00,Wunderground v.1.15,2013-11-07 05:10:00,
2013-11-07 00:15:00,54.9,49.8,29.55,WSW,249,9.0,9.0,83,0.00,,,0.00,Wunderground v.1.15,2013-11-07 05:15:00,
2013-11-07 00:20:00,54.9,49.8,29.55,West,271,6.0,14.0,83,0.00,,,0.00,Wunderground v.1.15,2013-11-07 05:20:00,
2013-11-07 00:25:00,54.9,49.8,29.54,WNW,286,7.0,8.0,83,0.00,,,0.00,Wunderground v.1.15,2013-11-07 05:25:00,
2013-11-07 00:30:00,54.5,49.8,29.54,WNW,289,9.0,9.0,84,0.00,,,0.01,Wunderground v.1.15,2013-11-07 05:30:00,
2013-11-07 00:35:00,54.2,49.8,29.54,West,275,9.0,11.0,85,0.00,,,0.01,Wunderground v.1.15,2013-11-07 05:35:00,
2013-11-07 00:40:00,54.1,50.0,29.54,West,275,11.0,11.0,86,0.00,,,0.01,Wunderground v.1.15,2013-11-07 05:40:00,
2013-11-07 00:45:00,53.9,50.1,29.54,WSW,252,11.0,11.0,87,0.00,,,0.01,Wunderground v.1.15,2013-11-07 05:45:00,
2013-11-07 00:50:00,53.5,50.0,29.55,West,262,9.0,11.0,88,0.00,,,0.01,Wunderground v.1.15,2013-11-07 05:50:00,
2013-11-07 00:55:00,53.2,50.0,29.54,West,272,8.0,11.0,89,0.00,,,0.01,Wunderground v.1.15,2013-11-07 05:55:00,
2013-11-07 01:00:00,52.9,50.3,29.53,West,271,9.0,16.0,91,0.00,,,0.02,Wunderground v.1.15,2013-11-07 06:00:00,
2013-11-07 01:05:00,52.6,50.3,29.53,West,277,11.0,13.0,92,0.00,,,0.02,Wunderground v.1.15,2013-11-07 06:05:00,
2013-11-07 01:10:00,52.4,50.1,29.52,WSW,254,10.0,13.0,92,0.00,,,0.02,Wunderground v.1.15,2013-11-07 06:10:00,
2013-11-07 01:15:00,52.4,50.4,29.52,West,269,8.0,8.0,93,0.00,,,0.02,Wunderground v.1.15,2013-11-07 06:15:00,
2013-11-07 01:20:00,52.3,50.3,29.52,WSW,252,6.0,13.0,93,0.00,,,0.02,Wunderground v.1.15,2013-11-07 06:20:00,
2013-11-07 01:25:00,52.4,50.4,29.51,WSW,258,8.0,13.0,93,0.00,,,0.02,Wunderground v.1.15,2013-11-07 06:25:00,
2013-11-07 01:30:00,52.6,50.3,29.50,West,264,10.0,13.0,92,0.00,,,0.02,Wunderground v.1.15,2013-11-07 06:30:00,
2013-11-07 01:35:00,52.6,50.3,29.50,West,273,8.0,8.0,92,0.00,,,0.02,Wunderground v.1.15,2013-11-07 06:35:00,
2013-11-07 01:40:00,52.6,50.3,29.50,West,271,5.0,8.0,92,0.00,,,0.02,Wunderground v.1.15,2013-11-07 06:40:00,
2013-11-07 01:45:00,52.6,50.3,29.51,West,271,5.0,5.0,92,0.00,,,0.02,Wunderground v.1.15,2013-11-07 06:45:00,
2013-11-07 01:50:00,52.6,50.3,29.50,West,269,5.0,5.0,92,0.00,,,0.02,Wunderground v.1.15,2013-11-07 06:50:00,
2013-11-07 01:55:00,52.7,50.4,29.50,West,263,6.0,9.0,92,0.00,,,0.02,Wunderground v.1.15,2013-11-07 06:55:00,
2013-11-07 02:00:00,53.0,50.7,29.51,West,272,7.0,9.0,92,0.00,,,0.02,Wunderground v.1.15,2013-11-07 07:00:00,
2013-11-07 02:05:00,53.0,50.4,29.50,West,267,6.0,6.0,91,0.00,,,0.02,Wunderground v.1.15,2013-11-07 07:05:00,
2013-11-07 02:10:00,53.1,50.5,29.50,West,270,6.0,9.0,91,0.00,,,0.02,Wunderground v.1.15,2013-11-07 07:10:00,
2013-11-07 02:15:00,53.2,50.6,29.50,WNW,286,7.0,7.0,91,0.00,,,0.02,Wunderground v.1.15,2013-11-07 07:15:00,
2013-11-07 02:20:00,53.2,50.6,29.50,West,266,8.0,8.0,91,0.00,,,0.03,Wunderground v.1.15,2013-11-07 07:20:00,
2013-11-07 02:25:00,53.3,50.7,29.49,West,279,9.0,9.0,91,0.00,,,0.03,Wunderground v.1.15,2013-11-07 07:25:00,
2013-11-07 02:30:00,53.2,50.3,29.49,West,268,8.0,9.0,90,0.00,,,0.03,Wunderground v.1.15,2013-11-07 07:30:00,
2013-11-07 02:35:00,53.1,50.5,29.49,West,281,6.0,6.0,91,0.00,,,0.03,Wunderground v.1.15,2013-11-07 07:35:00,
2013-11-07 02:40:00,53.1,50.5,29.48,WSW,250,6.0,6.0,91,0.00,,,0.04,Wunderground v.1.15,2013-11-07 07:40:00,
2013-11-07 02:45:00,53.1,50.5,29.49,West,273,7.0,7.0,91,0.07,,,0.05,Wunderground v.1.15,2013-11-07 07:45:00,
2013-11-07 02:50:00,53.0,50.4,29.48,WSW,257,8.0,13.0,91,0.07,,,0.05,Wunderground v.1.15,2013-11-07 07:50:00,
2013-11-07 02:55:00,53.1,50.5,29.48,WNW,294,10.0,10.0,91,0.09,,,0.06,Wunderground v.1.15,2013-11-07 07:55:00,
2013-11-07 03:00:00,53.0,50.4,29.48,West,274,10.0,10.0,91,0.06,,,0.06,Wunderground v.1.15,2013-11-07 08:00:00,
2013-11-07 03:05:00,52.9,50.6,29.48,West,274,5.0,5.0,92,0.05,,,0.07,Wunderground v.1.15,2013-11-07 08:05:00,
2013-11-07 03:10:00,52.8,50.5,29.47,West,260,3.0,7.0,92,0.05,,,0.07,Wunderground v.1.15,2013-11-07 08:10:00,
2013-11-07 03:15:00,52.6,50.3,29.47,West,260,3.0,3.0,92,0.04,,,0.07,Wunderground v.1.15,2013-11-07 08:15:00,
2013-11-07 03:20:00,52.6,50.6,29.47,West,265,3.0,4.0,93,0.04,,,0.08,Wunderground v.1.15,2013-11-07 08:20:00,
2013-11-07 03:25:00,52.5,50.5,29.47,West,268,5.0,5.0,93,0.16,,,0.10,Wunderground v.1.15,2013-11-07 08:25:00,
2013-11-07 03:30:00,52.5,50.5,29.47,West,263,7.0,7.0,93,0.12,,,0.11,Wunderground v.1.15,2013-11-07 08:30:00,
2013-11-07 03:35:00,52.4,50.7,29.47,West,259,6.0,6.0,94,0.11,,,0.11,Wunderground v.1.15,2013-11-07 08:35:00,
2013-11-07 03:40:00,52.4,50.7,29.47,West,261,6.0,10.0,94,0.10,,,0.12,Wunderground v.1.15,2013-11-07 08:40:00,
2013-11-07 03:45:00,52.3,50.6,29.47,West,277,5.0,8.0,94,0.35,,,0.15,Wunderground v.1.15,2013-11-07 08:45:00,
2013-11-07 03:50:00,52.3,50.6,29.48,West,260,5.0,8.0,94,0.30,,,0.17,Wunderground v.1.15,2013-11-07 08:50:00,
2013-11-07 03:55:00,52.2,50.5,29.47,WSW,253,5.0,8.0,94,0.19,,,0.18,Wunderground v.1.15,2013-11-07 08:55:00,
2013-11-07 04:00:00,52.1,50.7,29.47,WSW,250,6.0,12.0,95,0.21,,,0.20,Wunderground v.1.15,2013-11-07 09:00:00,
2013-11-07 04:05:00,52.1,50.7,29.47,West,267,7.0,7.0,95,0.16,,,0.21,Wunderground v.1.15,2013-11-07 09:05:00,
2013-11-07 04:10:00,52.1,50.7,29.47,West,263,7.0,12.0,95,0.15,,,0.22,Wunderground v.1.15,2013-11-07 09:10:00,
2013-11-07 04:15:00,52.1,50.7,29.47,WSW,248,7.0,10.0,95,0.13,,,0.24,Wunderground v.1.15,2013-11-07 09:15:00,
2013-11-07 04:20:00,52.1,50.7,29.47,West,272,7.0,10.0,95,0.11,,,0.24,Wunderground v.1.15,2013-11-07 09:20:00,
2013-11-07 04:25:00,52.1,50.7,29.46,West,275,7.0,7.0,95,0.10,,,0.25,Wunderground v.1.15,2013-11-07 09:25:00,
2013-11-07 04:30:00,52.1,50.7,29.46,WSW,257,7.0,8.0,95,0.08,,,0.26,Wunderground v.1.15,2013-11-07 09:30:00,
2013-11-07 04:35:00,52.1,50.7,29.46,West,265,6.0,8.0,95,0.08,,,0.26,Wunderground v.1.15,2013-11-07 09:35:00,
2013-11-07 04:40:00,52.0,50.6,29.46,WSW,253,6.0,8.0,95,0.07,,,0.27,Wunderground v.1.15,2013-11-07 09:40:00,
2013-11-07 04:45:00,52.0,50.6,29.46,WSW,254,5.0,5.0,95,0.08,,,0.28,Wunderground v.1.15,2013-11-07 09:45:00,
2013-11-07 04:50:00,52.0,50.6,29.46,West,278,5.0,6.0,95,0.08,,,0.28,Wunderground v.1.15,2013-11-07 09:50:00,
2013-11-07 04:55:00,52.0,50.6,29.45,WSW,249,4.0,4.0,95,0.06,,,0.29,Wunderground v.1.15,2013-11-07 09:55:00,
2013-11-07 05:00:00,52.0,50.6,29.45,WSW,251,4.0,6.0,95,0.06,,,0.29,Wunderground v.1.15,2013-11-07 10:00:00,
2013-11-07 05:05:00,51.9,50.8,29.45,WSW,249,5.0,9.0,96,0.08,,,0.30,Wunderground v.1.15,2013-11-07 10:05:00,
2013-11-07 05:10:00,51.9,50.8,29.45,WSW,250,5.0,9.0,96,0.09,,,0.31,Wunderground v.1.15,2013-11-07 10:10:00,
2013-11-07 05:15:00,51.9,50.8,29.46,WSW,249,4.0,6.0,96,0.09,,,0.31,Wunderground v.1.15,2013-11-07 10:15:00,
2013-11-07 05:20:00,51.8,50.7,29.46,WSW,249,4.0,6.0,96,0.05,,,0.31,Wunderground v.1.15,2013-11-07 10:20:00,
2013-11-07 05:25:00,51.8,50.7,29.45,WSW,249,4.0,4.0,96,0.04,,,0.31,Wunderground v.1.15,2013-11-07 10:25:00,
2013-11-07 05:30:00,51.7,50.6,29.46,WSW,249,2.0,4.0,96,0.00,,,0.31,Wunderground v.1.15,2013-11-07 10:30:00,
2013-11-07 05:35:00,51.7,50.6,29.46,WSW,249,2.0,2.0,96,0.00,,,0.31,Wunderground v.1.15,2013-11-07 10:35:00,
2013-11-07 05:40:00,51.7,50.6,29.47,WSW,250,1.0,4.0,96,0.28,,,0.33,Wunderground v.1.15,2013-11-07 10:40:00,
2013-11-07 05:45:00,51.2,49.5,29.48,WNW,284,2.0,2.0,94,0.20,,,0.35,Wunderground v.1.15,2013-11-07 10:45:00,
2013-11-07 05:50:00,49.8,48.1,29.49,SSW,193,4.0,4.0,94,0.08,,,0.36,Wunderground v.1.15,2013-11-07 10:50:00,
2013-11-07 05:55:00,48.7,46.8,29.49,ENE,59,4.0,4.0,93,0.11,,,0.37,Wunderground v.1.15,2013-11-07 10:55:00,
2013-11-07 06:00:00,48.2,46.6,29.49,SE,139,3.0,4.0,94,0.13,,,0.38,Wunderground v.1.15,2013-11-07 11:00:00,
2013-11-07 06:05:00,47.8,46.2,29.50,NNW,338,2.0,2.0,94,0.11,,,0.38,Wunderground v.1.15,2013-11-07 11:05:00,
2013-11-07 06:10:00,47.4,45.8,29.50,ENE,74,3.0,3.0,94,0.11,,,0.39,Wunderground v.1.15,2013-11-07 11:10:00,
2013-11-07 06:15:00,47.1,45.5,29.50,SE,138,3.0,3.0,94,0.09,,,0.40,Wunderground v.1.15,2013-11-07 11:15:00,
2013-11-07 06:20:00,46.9,45.3,29.51,South,190,2.0,5.0,94,0.13,,,0.41,Wunderground v.1.15,2013-11-07 11:20:00,
2013-11-07 06:25:00,46.6,45.0,29.50,ENE,74,2.0,7.0,94,0.13,,,0.42,Wunderground v.1.15,2013-11-07 11:25:00,
2013-11-07 06:30:00,46.1,44.5,29.50,West,264,3.0,7.0,94,0.14,,,0.44,Wunderground v.1.15,2013-11-07 11:30:00,
2013-11-07 06:35:00,45.9,44.3,29.51,East,92,2.0,2.0,94,0.16,,,0.45,Wunderground v.1.15,2013-11-07 11:35:00,
2013-11-07 06:40:00,45.8,44.2,29.51,West,259,1.0,4.0,94,0.16,,,0.46,Wunderground v.1.15,2013-11-07 11:40:00,
2013-11-07 06:45:00,45.6,44.0,29.51,East,90,2.0,5.0,94,0.10,,,0.47,Wunderground v.1.15,2013-11-07 11:45:00,
2013-11-07 06:50:00,45.4,43.8,29.52,East,95,3.0,5.0,94,0.08,,,0.47,Wunderground v.1.15,2013-11-07 11:50:00,
2013-11-07 06:55:00,45.1,43.5,29.52,East,101,3.0,3.0,94,0.07,,,0.48,Wunderground v.1.15,2013-11-07 11:55:00,
2013-11-07 07:00:00,44.8,43.2,29.52,East,101,2.0,4.0,94,0.09,,,0.49,Wunderground v.1.15,2013-11-07 12:00:00,
2013-11-07 07:05:00,44.3,42.7,29.52,NE,55,2.0,2.0,94,0.09,,,0.49,Wunderground v.1.15,2013-11-07 12:05:00,
2013-11-07 07:10:00,43.9,42.3,29.52,East,95,2.0,4.0,94,0.07,,,0.50,Wunderground v.1.15,2013-11-07 12:10:00,
2013-11-07 07:15:00,43.5,41.9,29.53,NE,36,2.0,4.0,94,0.10,,,0.51,Wunderground v.1.15,2013-11-07 12:15:00,
2013-11-07 07:20:00,43.3,42.0,29.54,SSW,204,3.0,4.0,95,0.13,,,0.52,Wunderground v.1.15,2013-11-07 12:20:00,
2013-11-07 07:25:00,43.1,41.8,29.54,ENE,71,3.0,5.0,95,0.18,,,0.54,Wunderground v.1.15,2013-11-07 12:25:00,
2013-11-07 07:30:00,42.9,41.6,29.54,NNE,28,3.0,5.0,95,0.19,,,0.55,Wunderground v.1.15,2013-11-07 12:30:00,
2013-11-07 07:35:00,42.7,41.4,29.54,WNW,302,2.0,5.0,95,0.08,,,0.55,Wunderground v.1.15,2013-11-07 12:35:00,
2013-11-07 07:40:00,42.6,41.3,29.55,WNW,282,2.0,5.0,95,0.05,,,0.55,Wunderground v.1.15,2013-11-07 12:40:00,
2013-11-07 07:45:00,42.4,41.1,29.55,NW,307,2.0,2.0,95,0.04,,,0.56,Wunderground v.1.15,2013-11-07 12:45:00,
2013-11-07 07:50:00,42.3,41.0,29.55,West,261,2.0,4.0,95,0.04,,,0.56,Wunderground v.1.15,2013-11-07 12:50:00,
2013-11-07 07:55:00,42.2,40.9,29.55,East,100,3.0,3.0,95,0.04,,,0.56,Wunderground v.1.15,2013-11-07 12:55:00,
2013-11-07 08:00:00,42.1,40.8,29.55,East,88,2.0,4.0,95,0.00,,,0.56,Wunderground v.1.15,2013-11-07 13:00:00,
2013-11-07 08:05:00,41.9,40.6,29.55,ENE,67,1.0,1.0,95,0.00,,,0.56,Wunderground v.1.15,2013-11-07 13:05:00,
2013-11-07 08:10:00,41.8,40.5,29.56,NE,50,1.0,4.0,95,0.00,,,0.56,Wunderground v.1.15,2013-11-07 13:10:00,
2013-11-07 08:15:00,41.5,40.2,29.55,East,79,2.0,4.0,95,0.00,,,0.57,Wunderground v.1.15,2013-11-07 13:15:00,
2013-11-07 08:20:00,41.4,40.1,29.55,East,79,2.0,4.0,95,0.00,,,0.57,Wunderground v.1.15,2013-11-07 13:20:00,
2013-11-07 08:25:00,41.3,40.0,29.56,North,5,2.0,2.0,95,0.00,,,0.57,Wunderground v.1.15,2013-11-07 13:25:00,
2013-11-07 08:30:00,41.2,39.9,29.56,ENE,74,1.0,4.0,95,0.00,,,0.57,Wunderground v.1.15,2013-11-07 13:30:00,
2013-11-07 08:35:00,41.1,39.8,29.55,ESE,107,1.0,1.0,95,0.00,,,0.57,Wunderground v.1.15,2013-11-07 13:35:00,
2013-11-07 08:40:00,41.0,39.7,29.55,SSE,150,1.0,4.0,95,0.00,,,0.57,Wunderground v.1.15,2013-11-07 13:40:00,
2013-11-07 08:45:00,41.0,39.7,29.56,SSW,209,1.0,1.0,95,0.00,,,0.57,Wunderground v.1.15,2013-11-07 13:45:00,
2013-11-07 08:50:00,40.9,39.6,29.56,NE,40,1.0,2.0,95,0.00,,,0.57,Wunderground v.1.15,2013-11-07 13:50:00,
2013-11-07 08:55:00,40.8,39.5,29.56,NE,45,2.0,2.0,95,0.00,,,0.57,Wunderground v.1.15,2013-11-07 13:55:00,
2013-11-07 09:00:00,40.8,39.5,29.56,East,80,2.0,4.0,95,0.00,,,0.57,Wunderground v.1.15,2013-11-07 14:00:00,
2013-11-07 09:05:00,40.7,39.4,29.57,ESE,109,1.0,7.0,95,0.00,,,0.57,Wunderground v.1.15,2013-11-07 14:05:00,
2013-11-07 09:10:00,40.7,39.4,29.57,NW,309,1.0,7.0,95,0.00,,,0.57,Wunderground v.1.15,2013-11-07 14:10:00,
2013-11-07 09:15:00,40.6,39.3,29.56,WSW,252,1.0,4.0,95,0.00,,,0.58,Wunderground v.1.15,2013-11-07 14:15:00,
2013-11-07 09:20:00,40.6,39.3,29.56,SSE,157,1.0,4.0,95,0.00,,,0.58,Wunderground v.1.15,2013-11-07 14:20:00,
2013-11-07 09:25:00,40.5,39.2,29.57,West,281,1.0,1.0,95,0.00,,,0.58,Wunderground v.1.15,2013-11-07 14:25:00,
2013-11-07 09:30:00,40.5,39.2,29.57,East,79,2.0,2.0,95,0.00,,,0.58,Wunderground v.1.15,2013-11-07 14:30:00,
2013-11-07 09:35:00,40.5,39.2,29.57,NE,46,2.0,4.0,95,0.00,,,0.58,Wunderground v.1.15,2013-11-07 14:35:00,
2013-11-07 09:40:00,40.5,38.9,29.57,North,355,2.0,4.0,94,0.00,,,0.58,Wunderground v.1.15,2013-11-07 14:40:00,
2013-11-07 09:45:00,40.5,38.9,29.57,NW,311,2.0,2.0,94,0.00,,,0.58,Wunderground v.1.15,2013-11-07 14:45:00,
2013-11-07 09:50:00,40.6,39.0,29.57,East,81,2.0,4.0,94,0.00,,,0.58,Wunderground v.1.15,2013-11-07 14:50:00,
2013-11-07 09:55:00,40.5,38.9,29.57,ENE,68,2.0,2.0,94,0.00,,,0.58,Wunderground v.1.15,2013-11-07 14:55:00,
2013-11-07 10:00:00,40.5,38.9,29.57,ESE,114,2.0,4.0,94,0.00,,,0.58,Wunderground v.1.15,2013-11-07 15:00:00,
2013-11-07 10:05:00,40.4,38.8,29.57,NNE,33,1.0,1.0,94,0.00,,,0.58,Wunderground v.1.15,2013-11-07 15:05:00,
2013-11-07 10:10:00,40.4,38.8,29.57,East,88,1.0,9.0,94,0.00,,,0.58,Wunderground v.1.15,2013-11-07 15:10:00,
2013-11-07 10:15:00,40.4,38.8,29.57,South,191,1.0,4.0,94,0.00,,,0.58,Wunderground v.1.15,2013-11-07 15:15:00,
2013-11-07 10:20:00,40.4,38.8,29.57,NNE,26,1.0,4.0,94,0.00,,,0.58,Wunderground v.1.15,2013-11-07 15:20:00,
2013-11-07 10:25:00,40.4,38.8,29.56,East,94,1.0,5.0,94,0.00,,,0.58,Wunderground v.1.15,2013-11-07 15:25:00,
2013-11-07 10:30:00,40.4,38.8,29.57,East,84,2.0,5.0,94,0.00,,,0.58,Wunderground v.1.15,2013-11-07 15:30:00,
2013-11-07 10:35:00,40.4,38.8,29.57,NE,48,2.0,2.0,94,0.00,,,0.58,Wunderground v.1.15,2013-11-07 15:35:00,
2013-11-07 10:40:00,40.4,38.5,29.57,NW,315,2.0,4.0,93,0.00,,,0.58,Wunderground v.1.15,2013-11-07 15:40:00,
2013-11-07 10:45:00,40.3,38.4,29.57,North,11,2.0,4.0,93,0.00,,,0.58,Wunderground v.1.15,2013-11-07 15:45:00,
2013-11-07 10:50:00,40.4,38.5,29.57,SSW,207,2.0,4.0,93,0.00,,,0.58,Wunderground v.1.15,2013-11-07 15:50:00,
2013-11-07 10:55:00,40.3,38.4,29.57,East,93,2.0,4.0,93,0.00,,,0.58,Wunderground v.1.15,2013-11-07 15:55:00,
2013-11-07 11:00:00,40.2,38.6,29.57,ENE,64,2.0,4.0,94,0.00,,,0.58,Wunderground v.1.15,2013-11-07 16:00:00,
2013-11-07 11:10:00,40.2,38.6,29.57,East,90,2.0,4.0,94,0.00,,,0.58,Wunderground v.1.15,2013-11-07 16:10:00,
2013-11-07 11:15:00,40.3,38.7,29.57,ENE,61,2.0,4.0,94,0.00,,,0.58,Wunderground v.1.15,2013-11-07 16:15:00,
2013-11-07 11:20:00,40.4,38.8,29.57,East,83,2.0,5.0,94,0.00,,,0.58,Wunderground v.1.15,2013-11-07 16:20:00,
2013-11-07 11:25:00,40.1,38.2,29.57,NNW,337,3.0,8.0,93,0.00,,,0.58,Wunderground v.1.15,2013-11-07 16:25:00,
2013-11-07 11:30:00,40.1,38.2,29.57,NNW,348,3.0,8.0,93,0.00,,,0.58,Wunderground v.1.15,2013-11-07 16:30:00,
2013-11-07 11:35:00,40.1,38.5,29.57,ESE,116,2.0,4.0,94,0.00,,,0.58,Wunderground v.1.15,2013-11-07 16:35:00,
2013-11-07 11:40:00,40.2,38.6,29.57,East,80,2.0,4.0,94,0.00,,,0.58,Wunderground v.1.15,2013-11-07 16:40:00,
2013-11-07 11:45:00,40.2,38.6,29.56,South,178,2.0,2.0,94,0.00,,,0.58,Wunderground v.1.15,2013-11-07 16:45:00,
2013-11-07 11:50:00,40.3,38.7,29.57,ESE,108,1.0,4.0,94,0.00,,,0.58,Wunderground v.1.15,2013-11-07 16:50:00,
2013-11-07 11:55:00,40.1,38.2,29.56,East,94,2.0,2.0,93,0.00,,,0.58,Wunderground v.1.15,2013-11-07 16:55:00,
2013-11-07 12:00:00,40.0,38.1,29.55,NNE,15,2.0,4.0,93,0.00,,,0.58,Wunderground v.1.15,2013-11-07 17:00:00,
2013-11-07 12:05:00,39.8,38.2,29.56,East,88,3.0,3.0,94,0.00,,,0.58,Wunderground v.1.15,2013-11-07 17:05:00,
2013-11-07 12:10:00,39.8,38.2,29.56,ENE,71,3.0,4.0,94,0.00,,,0.58,Wunderground v.1.15,2013-11-07 17:10:00,
2013-11-07 12:15:00,39.7,38.1,29.55,East,85,2.0,4.0,94,0.00,,,0.58,Wunderground v.1.15,2013-11-07 17:15:00,
2013-11-07 12:20:00,39.8,38.2,29.55,East,88,2.0,4.0,94,0.00,,,0.58,Wunderground v.1.15,2013-11-07 17:20:00,
2013-11-07 12:25:00,39.8,38.2,29.55,East,88,2.0,2.0,94,0.00,,,0.58,Wunderground v.1.15,2013-11-07 17:25:00,
2013-11-07 12:30:00,39.6,38.0,29.55,NE,42,2.0,4.0,94,0.00,,,0.58,Wunderground v.1.15,2013-11-07 17:30:00,
2013-11-07 12:35:00,39.4,37.5,29.55,East,86,2.0,13.0,93,0.00,,,0.58,Wunderground v.1.15,2013-11-07 17:35:00,
2013-11-07 12:40:00,39.3,37.7,29.55,ENE,67,4.0,13.0,94,0.00,,,0.59,Wunderground v.1.15,2013-11-07 17:40:00,
2013-11-07 12:45:00,39.3,37.7,29.55,East,82,5.0,5.0,94,0.00,,,0.59,Wunderground v.1.15,2013-11-07 17:45:00,
2013-11-07 12:50:00,39.3,37.7,29.55,East,81,4.0,5.0,94,0.00,,,0.59,Wunderground v.1.15,2013-11-07 17:50:00,
2013-11-07 12:55:00,39.5,38.2,29.56,NE,34,2.0,4.0,95,0.00,,,0.59,Wunderground v.1.15,2013-11-07 17:55:00,
2013-11-07 13:00:00,39.5,37.9,29.55,West,264,2.0,5.0,94,0.00,,,0.59,Wunderground v.1.15,2013-11-07 18:00:00,
2013-11-07 13:05:00,39.5,37.9,29.55,ENE,58,2.0,2.0,94,0.00,,,0.59,Wunderground v.1.15,2013-11-07 18:05:00,
2013-11-07 13:10:00,39.7,38.1,29.55,WSW,256,2.0,4.0,94,0.00,,,0.59,Wunderground v.1.15,2013-11-07 18:10:00,
2013-11-07 13:15:00,39.9,38.6,29.55,East,94,2.0,2.0,95,0.00,,,0.59,Wunderground v.1.15,2013-11-07 18:15:00,
2013-11-07 13:20:00,40.3,39.0,29.55,East,98,2.0,4.0,95,0.00,,,0.59,Wunderground v.1.15,2013-11-07 18:20:00,
2013-11-07 13:25:00,40.4,38.8,29.55,North,5,2.0,2.0,94,0.00,,,0.59,Wunderground v.1.15,2013-11-07 18:25:00,
2013-11-07 13:30:00,40.4,38.8,29.55,ESE,103,2.0,3.0,94,0.00,,,0.59,Wunderground v.1.15,2013-11-07 18:30:00,
2013-11-07 13:35:00,40.1,38.2,29.55,East,81,2.0,2.0,93,0.00,,,0.59,Wunderground v.1.15,2013-11-07 18:35:00,
2013-11-07 13:40:00,39.6,37.5,29.55,East,86,2.0,8.0,92,0.00,,,0.60,Wunderground v.1.15,2013-11-07 18:40:00,
2013-11-07 13:45:00,39.1,37.2,29.55,East,83,3.0,3.0,93,0.14,,,0.62,Wunderground v.1.15,2013-11-07 18:45:00,
2013-11-07 13:50:00,38.7,36.9,29.55,NE,49,3.0,4.0,93,0.11,,,0.62,Wunderground v.1.15,2013-11-07 18:50:00,
2013-11-07 13:55:00,38.6,36.8,29.55,ENE,76,3.0,10.0,93,0.06,,,0.62,Wunderground v.1.15,2013-11-07 18:55:00,
2013-11-07 14:00:00,38.4,36.6,29.55,WSW,249,3.0,10.0,93,0.04,,,0.63,Wunderground v.1.15,2013-11-07 19:00:00,
2013-11-07 14:05:00,38.6,37.0,29.55,WNW,282,2.0,2.0,94,0.04,,,0.63,Wunderground v.1.15,2013-11-07 19:05:00,
2013-11-07 14:10:00,38.9,37.3,29.55,NE,43,2.0,4.0,94,0.04,,,0.63,Wunderground v.1.15,2013-11-07 19:10:00,
2013-11-07 14:15:00,39.0,37.1,29.55,ENE,57,3.0,3.0,93,0.04,,,0.63,Wunderground v.1.15,2013-11-07 19:15:00,
2013-11-07 14:20:00,39.1,37.2,29.55,North,351,2.0,4.0,93,0.00,,,0.63,Wunderground v.1.15,2013-11-07 19:20:00,
2013-11-07 14:25:00,39.2,37.1,29.55,ENE,61,2.0,4.0,92,0.00,,,0.63,Wunderground v.1.15,2013-11-07 19:25:00,
2013-11-07 14:30:00,39.2,37.1,29.55,ENE,74,3.0,4.0,92,0.00,,,0.63,Wunderground v.1.15,2013-11-07 19:30:00,
2013-11-07 14:35:00,39.3,37.2,29.55,East,89,2.0,6.0,92,0.00,,,0.63,Wunderground v.1.15,2013-11-07 19:35:00,
2013-11-07 14:40:00,39.4,37.0,29.55,North,355,2.0,6.0,91,0.00,,,0.63,Wunderground v.1.15,2013-11-07 19:40:00,
2013-11-07 14:45:00,39.4,37.0,29.55,NE,37,3.0,3.0,91,0.00,,,0.63,Wunderground v.1.15,2013-11-07 19:45:00,
2013-11-07 14:50:00,39.4,37.0,29.55,NE,53,1.0,4.0,91,0.00,,,0.63,Wunderground v.1.15,2013-11-07 19:50:00,
2013-11-07 14:55:00,39.3,36.6,29.55,East,80,1.0,1.0,90,0.00,,,0.63,Wunderground v.1.15,2013-11-07 19:55:00,
2013-11-07 15:00:00,39.2,36.5,29.55,East,79,2.0,2.0,90,0.00,,,0.63,Wunderground v.1.15,2013-11-07 20:00:00,
2013-11-07 15:05:00,39.1,36.1,29.56,West,263,2.0,2.0,89,0.00,,,0.63,Wunderground v.1.15,2013-11-07 20:05:00,
2013-11-07 15:10:00,39.0,35.7,29.56,NW,312,2.0,4.0,88,0.00,,,0.63,Wunderground v.1.15,2013-11-07 20:10:00,
2013-11-07 15:15:00,39.0,35.7,29.56,NE,46,2.0,2.0,88,0.00,,,0.63,Wunderground v.1.15,2013-11-07 20:15:00,
2013-11-07 15:20:00,38.9,35.4,29.56,ENE,74,2.0,4.0,87,0.00,,,0.63,Wunderground v.1.15,2013-11-07 20:20:00,
2013-11-07 15:25:00,38.9,35.4,29.56,SSW,208,2.0,2.0,87,0.00,,,0.63,Wunderground v.1.15,2013-11-07 20:25:00,
2013-11-07 15:30:00,38.9,35.1,29.56,East,88,2.0,4.0,86,0.00,,,0.63,Wunderground v.1.15,2013-11-07 20:30:00,
2013-11-07 15:35:00,38.9,34.5,29.56,NNE,16,2.0,2.0,84,0.00,,,0.63,Wunderground v.1.15,2013-11-07 20:35:00,
2013-11-07 15:40:00,39.0,34.6,29.56,North,5,2.0,4.0,84,0.00,,,0.63,Wunderground v.1.15,2013-11-07 20:40:00,
2013-11-07 15:45:00,38.9,34.5,29.56,ENE,74,1.0,4.0,84,0.00,,,0.63,Wunderground v.1.15,2013-11-07 20:45:00,
2013-11-07 15:50:00,38.9,34.5,29.57,WNW,301,1.0,4.0,84,0.00,,,0.63,Wunderground v.1.15,2013-11-07 20:50:00,
2013-11-07 15:55:00,38.9,34.5,29.57,NW,305,1.0,1.0,84,0.00,,,0.63,Wunderground v.1.15,2013-11-07 20:55:00,
2013-11-07 16:00:00,38.8,34.4,29.57,South,171,2.0,2.0,84,0.00,,,0.63,Wunderground v.1.15,2013-11-07 21:00:00,
2013-11-07 16:05:00,38.8,34.4,29.56,NW,317,1.0,1.0,84,0.00,,,0.63,Wunderground v.1.15,2013-11-07 21:05:00,
2013-11-07 16:10:00,38.8,34.4,29.56,NW,321,1.0,4.0,84,0.00,,,0.63,Wunderground v.1.15,2013-11-07 21:10:00,
2013-11-07 16:15:00,38.6,34.2,29.56,East,81,1.0,1.0,84,0.00,,,0.63,Wunderground v.1.15,2013-11-07 21:15:00,
2013-11-07 16:20:00,38.5,33.8,29.56,East,80,1.0,2.0,83,0.00,,,0.63,Wunderground v.1.15,2013-11-07 21:20:00,
2013-11-07 16:25:00,38.4,33.7,29.56,East,82,1.0,1.0,83,0.00,,,0.63,Wunderground v.1.15,2013-11-07 21:25:00,
2013-11-07 16:30:00,38.3,33.3,29.56,WSW,238,1.0,2.0,82,0.00,,,0.63,Wunderground v.1.15,2013-11-07 21:30:00,
2013-11-07 16:35:00,38.2,33.2,29.56,South,183,1.0,1.0,82,0.00,,,0.63,Wunderground v.1.15,2013-11-07 21:35:00,
2013-11-07 16:40:00,38.1,32.8,29.56,East,92,2.0,2.0,81,0.00,,,0.63,Wunderground v.1.15,2013-11-07 21:40:00,
2013-11-07 16:45:00,37.9,32.6,29.57,East,97,1.0,1.0,81,0.00,,,0.63,Wunderground v.1.15,2013-11-07 21:45:00,
2013-11-07 16:50:00,37.8,32.5,29.57,East,97,1.0,4.0,81,0.00,,,0.63,Wunderground v.1.15,2013-11-07 21:50:00,
2013-11-07 16:55:00,37.7,32.4,29.57,East,96,0.0,4.0,81,0.00,,,0.63,Wunderground v.1.15,2013-11-07 21:55:00,
2013-11-07 17:00:00,37.7,32.7,29.57,East,92,1.0,4.0,82,0.00,,,0.63,Wunderground v.1.15,2013-11-07 22:00:00,
2013-11-07 17:05:00,37.7,32.7,29.57,ENE,58,1.0,9.0,82,0.00,,,0.63,Wunderground v.1.15,2013-11-07 22:05:00,
2013-11-07 17:10:00,37.7,32.7,29.57,NE,55,1.0,9.0,82,0.00,,,0.63,Wunderground v.1.15,2013-11-07 22:10:00,
2013-11-07 17:15:00,37.7,32.7,29.58,ENE,74,1.0,1.0,82,0.00,,,0.63,Wunderground v.1.15,2013-11-07 22:15:00,
2013-11-07 17:20:00,37.7,32.7,29.58,ENE,63,1.0,4.0,82,0.00,,,0.63,Wunderground v.1.15,2013-11-07 22:20:00,
2013-11-07 17:25:00,37.6,32.9,29.58,East,92,2.0,2.0,83,0.00,,,0.63,Wunderground v.1.15,2013-11-07 22:25:00,
2013-11-07 17:30:00,37.5,33.1,29.58,East,83,2.0,4.0,84,0.00,,,0.63,Wunderground v.1.15,2013-11-07 22:30:00,
2013-11-07 17:35:00,37.4,33.3,29.58,East,83,1.0,4.0,85,0.00,,,0.63,Wunderground v.1.15,2013-11-07 22:35:00,
2013-11-07 17:40:00,37.3,33.2,29.58,East,83,1.0,4.0,85,0.00,,,0.63,Wunderground v.1.15,2013-11-07 22:40:00,
2013-11-07 17:45:00,37.1,33.3,29.58,ENE,77,1.0,1.0,86,0.00,,,0.63,Wunderground v.1.15,2013-11-07 22:45:00,
2013-11-07 17:50:00,37.1,33.3,29.59,ENE,77,1.0,4.0,86,0.00,,,0.63,Wunderground v.1.15,2013-11-07 22:50:00,
2013-11-07 17:55:00,37.0,33.2,29.58,ENE,77,0.0,4.0,86,0.00,,,0.63,Wunderground v.1.15,2013-11-07 22:55:00,
2013-11-07 18:00:00,37.0,33.2,29.59,ENE,77,1.0,4.0,86,0.00,,,0.63,Wunderground v.1.15,2013-11-07 23:00:00,
2013-11-07 18:05:00,36.9,33.1,29.59,ENE,77,0.0,4.0,86,0.00,,,0.63,Wunderground v.1.15,2013-11-07 23:05:00,
2013-11-07 18:10:00,36.9,33.1,29.59,ENE,77,0.0,4.0,86,0.00,,,0.63,Wunderground v.1.15,2013-11-07 23:10:00,
2013-11-07 18:15:00,36.9,33.1,29.59,ENE,77,0.0,4.0,86,0.00,,,0.63,Wunderground v.1.15,2013-11-07 23:15:00,
2013-11-07 18:20:00,36.8,33.0,29.59,ENE,77,0.0,4.0,86,0.00,,,0.63,Wunderground v.1.15,2013-11-07 23:20:00,
2013-11-07 18:25:00,36.8,33.0,29.59,ENE,77,0.0,4.0,86,0.00,,,0.63,Wunderground v.1.15,2013-11-07 23:25:00,
2013-11-07 18:30:00,36.7,33.2,29.59,ENE,77,0.0,4.0,87,0.00,,,0.63,Wunderground v.1.15,2013-11-07 23:30:00,
2013-11-07 18:35:00,36.7,33.2,29.59,ENE,76,0.0,4.0,87,0.00,,,0.63,Wunderground v.1.15,2013-11-07 23:35:00,
2013-11-07 18:40:00,36.7,33.2,29.60,ENE,76,0.0,4.0,87,0.00,,,0.63,Wunderground v.1.15,2013-11-07 23:40:00,
2013-11-07 18:45:00,36.7,33.2,29.60,West,262,1.0,1.0,87,0.00,,,0.63,Wunderground v.1.15,2013-11-07 23:45:00,
2013-11-07 18:50:00,36.7,33.2,29.60,NE,50,1.0,4.0,87,0.00,,,0.63,Wunderground v.1.15,2013-11-07 23:50:00,
2013-11-07 18:55:00,36.8,33.3,29.60,WNW,291,1.0,4.0,87,0.00,,,0.63,Wunderground v.1.15,2013-11-07 23:55:00,
2013-11-07 19:00:00,36.7,33.2,29.60,NE,36,1.0,4.0,87,0.00,,,0.63,Wunderground v.1.15,2013-11-08 00:00:00,
2013-11-07 19:05:00,36.7,33.2,29.59,NE,36,1.0,1.0,87,0.00,,,0.63,Wunderground v.1.15,2013-11-08 00:05:00,
2013-11-07 19:10:00,36.6,33.1,29.59,East,86,1.0,4.0,87,0.00,,,0.63,Wunderground v.1.15,2013-11-08 00:10:00,
2013-11-07 19:15:00,36.5,33.0,29.59,ENE,76,1.0,1.0,87,0.00,,,0.63,Wunderground v.1.15,2013-11-08 00:15:00,
2013-11-07 19:20:00,36.4,32.9,29.59,ENE,76,0.0,4.0,87,0.00,,,0.63,Wunderground v.1.15,2013-11-08 00:20:00,
2013-11-07 19:25:00,36.2,32.7,29.59,ENE,76,0.0,4.0,87,0.00,,,0.63,Wunderground v.1.15,2013-11-08 00:25:00,
2013-11-07 19:30:00,36.1,32.6,29.59,ENE,76,0.0,4.0,87,0.00,,,0.63,Wunderground v.1.15,2013-11-08 00:30:00,
2013-11-07 19:35:00,36.0,32.8,29.60,ENE,76,0.0,4.0,88,0.00,,,0.63,Wunderground v.1.15,2013-11-08 00:35:00,
2013-11-07 19:40:00,35.8,32.6,29.60,ENE,76,0.0,4.0,88,0.00,,,0.63,Wunderground v.1.15,2013-11-08 00:40:00,
2013-11-07 19:45:00,35.6,32.4,29.60,ENE,76,0.0,4.0,88,0.00,,,0.63,Wunderground v.1.15,2013-11-08 00:45:00,
2013-11-07 19:50:00,35.4,32.2,29.60,ENE,76,0.0,4.0,88,0.00,,,0.63,Wunderground v.1.15,2013-11-08 00:50:00,
2013-11-07 19:55:00,35.3,32.4,29.60,ENE,76,0.0,4.0,89,0.00,,,0.63,Wunderground v.1.15,2013-11-08 00:55:00,
2013-11-07 20:00:00,35.2,32.3,29.61,ENE,76,0.0,4.0,89,0.00,,,0.63,Wunderground v.1.15,2013-11-08 01:00:00,
2013-11-07 20:05:00,35.2,32.3,29.60,ENE,76,0.0,4.0,89,0.00,,,0.63,Wunderground v.1.15,2013-11-08 01:05:00,
2013-11-07 20:10:00,35.0,32.1,29.60,ENE,76,0.0,4.0,89,0.00,,,0.63,Wunderground v.1.15,2013-11-08 01:10:00,
2013-11-07 20:20:00,35.0,32.4,29.60,ENE,76,0.0,4.0,90,0.00,,,0.63,Wunderground v.1.15,2013-11-08 01:20:00,
2013-11-07 20:25:00,35.1,32.5,29.60,ENE,76,0.0,4.0,90,0.00,,,0.63,Wunderground v.1.15,2013-11-08 01:25:00,
2013-11-07 20:30:00,35.2,32.6,29.60,ENE,76,0.0,4.0,90,0.00,,,0.63,Wunderground v.1.15,2013-11-08 01:30:00,
2013-11-07 20:35:00,35.3,32.7,29.60,ENE,76,0.0,4.0,90,0.00,,,0.63,Wunderground v.1.15,2013-11-08 01:35:00,
2013-11-07 20:40:00,35.5,32.9,29.60,ENE,76,0.0,4.0,90,0.00,,,0.63,Wunderground v.1.15,2013-11-08 01:40:00,
2013-11-07 20:45:00,35.5,32.9,29.60,ENE,76,0.0,4.0,90,0.00,,,0.63,Wunderground v.1.15,2013-11-08 01:45:00,
2013-11-07 20:50:00,35.6,32.7,29.60,ENE,77,0.0,4.0,89,0.00,,,0.63,Wunderground v.1.15,2013-11-08 01:50:00,
2013-11-07 20:55:00,35.6,32.7,29.60,ENE,77,0.0,4.0,89,0.00,,,0.63,Wunderground v.1.15,2013-11-08 01:55:00,
2013-11-07 21:00:00,35.8,32.9,29.60,NNW,347,1.0,4.0,89,0.00,,,0.63,Wunderground v.1.15,2013-11-08 02:00:00,
2013-11-07 21:05:00,35.9,32.7,29.60,NNE,21,2.0,2.0,88,0.00,,,0.63,Wunderground v.1.15,2013-11-08 02:05:00,
2013-11-07 21:10:00,35.9,32.4,29.60,SW,234,2.0,4.0,87,0.00,,,0.63,Wunderground v.1.15,2013-11-08 02:10:00,
2013-11-07 21:15:00,35.9,32.1,29.60,NW,314,1.0,1.0,86,0.00,,,0.63,Wunderground v.1.15,2013-11-08 02:15:00,
2013-11-07 21:20:00,35.9,31.8,29.60,NNW,329,1.0,4.0,85,0.00,,,0.63,Wunderground v.1.15,2013-11-08 02:20:00,
2013-11-07 21:25:00,35.9,31.8,29.60,NNE,26,1.0,1.0,85,0.00,,,0.63,Wunderground v.1.15,2013-11-08 02:25:00,
2013-11-07 21:30:00,36.0,31.9,29.60,WNW,290,1.0,7.0,85,0.00,,,0.63,Wunderground v.1.15,2013-11-08 02:30:00,
2013-11-07 21:35:00,36.1,31.7,29.60,WSW,258,2.0,2.0,84,0.00,,,0.63,Wunderground v.1.15,2013-11-08 02:35:00,
2013-11-07 21:40:00,36.2,31.5,29.60,NNE,24,2.0,4.0,83,0.00,,,0.63,Wunderground v.1.15,2013-11-08 02:40:00,
2013-11-07 21:45:00,36.3,31.6,29.60,ENE,64,1.0,4.0,83,0.00,,,0.63,Wunderground v.1.15,2013-11-08 02:45:00,
2013-11-07 21:50:00,36.2,31.5,29.60,North,11,1.0,4.0,83,0.00,,,0.63,Wunderground v.1.15,2013-11-08 02:50:00,
2013-11-07 21:55:00,36.3,31.3,29.60,ENE,77,2.0,2.0,82,0.00,,,0.63,Wunderground v.1.15,2013-11-08 02:55:00,
2013-11-07 22:05:00,36.3,31.6,29.60,West,267,2.0,2.0,83,0.00,,,0.63,Wunderground v.1.15,2013-11-08 03:05:00,
2013-11-07 22:10:00,36.3,31.6,29.60,WSW,257,1.0,4.0,83,0.00,,,0.63,Wunderground v.1.15,2013-11-08 03:10:00,
2013-11-07 22:15:00,36.2,31.5,29.60,WSW,241,1.0,1.0,83,0.00,,,0.63,Wunderground v.1.15,2013-11-08 03:15:00,
2013-11-07 22:20:00,36.2,31.5,29.60,NE,50,1.0,3.0,83,0.00,,,0.63,Wunderground v.1.15,2013-11-08 03:20:00,
2013-11-07 22:25:00,36.1,31.4,29.60,East,82,1.0,1.0,83,0.00,,,0.63,Wunderground v.1.15,2013-11-08 03:25:00,
2013-11-07 22:30:00,36.1,31.4,29.60,NNW,348,1.0,4.0,83,0.00,,,0.63,Wunderground v.1.15,2013-11-08 03:30:00,
2013-11-07 22:35:00,36.0,31.6,29.60,WSW,240,1.0,4.0,84,0.00,,,0.63,Wunderground v.1.15,2013-11-08 03:35:00,
2013-11-07 22:40:00,36.0,31.6,29.60,West,268,2.0,4.0,84,0.00,,,0.63,Wunderground v.1.15,2013-11-08 03:40:00,
2013-11-07 22:45:00,35.9,31.2,29.60,East,88,2.0,6.0,83,0.00,,,0.63,Wunderground v.1.15,2013-11-08 03:45:00,
2013-11-07 22:50:00,35.9,31.2,29.59,East,84,2.0,6.0,83,0.00,,,0.63,Wunderground v.1.15,2013-11-08 03:50:00,
2013-11-07 22:55:00,35.9,31.2,29.60,East,97,2.0,8.0,83,0.00,,,0.63,Wunderground v.1.15,2013-11-08 03:55:00,
2013-11-07 23:00:00,35.7,31.0,29.59,WNW,287,2.0,8.0,83,0.00,,,0.63,Wunderground v.1.15,2013-11-08 04:00:00,
2013-11-07 23:05:00,35.6,30.9,29.59,NNW,339,2.0,2.0,83,0.00,,,0.63,Wunderground v.1.15,2013-11-08 04:05:00,
2013-11-07 23:10:00,35.5,30.8,29.59,West,262,2.0,4.0,83,0.00,,,0.63,Wunderground v.1.15,2013-11-08 04:10:00,
2013-11-07 23:15:00,35.3,30.7,29.59,ESE,108,1.0,1.0,83,0.00,,,0.63,Wunderground v.1.15,2013-11-08 04:15:00,
2013-11-07 23:20:00,35.2,30.9,29.59,NW,312,2.0,2.0,84,0.00,,,0.63,Wunderground v.1.15,2013-11-08 04:20:00,
2013-11-07 23:25:00,35.2,30.9,29.59,NNW,334,2.0,2.0,84,0.00,,,0.63,Wunderground v.1.15,2013-11-08 04:25:00,
2013-11-07 23:30:00,35.3,30.9,29.60,SW,230,2.0,4.0,84,0.00,,,0.63,Wunderground v.1.15,2013-11-08 04:30:00,
2013-11-07 23:35:00,35.3,30.9,29.60,ENE,67,2.0,4.0,84,0.00,,,0.63,Wunderground v.1.15,2013-11-08 04:35:00,
2013-11-07 23:40:00,35.3,30.9,29.60,North,355,3.0,4.0,84,0.00,,,0.63,Wunderground v.1.15,2013-11-08 04:40:00,
2013-11-07 23:45:00,35.3,30.9,29.59,East,97,2.0,9.0,84,0.00,,,0.63,Wunderground v.1.15,2013-11-08 04:45:00,
2013-11-07 23:50:00,35.2,30.9,29.59,NE,49,1.0,9.0,84,0.00,,,0.63,Wunderground v.1.15,2013-11-08 04:50:00,
2013-11-07 23:55:00,35.2,30.9,29.59,NE,55,1.0,1.0,84,0.00,,,0.63,Wunderground v.1.15,2013-11-08 04:55:00,